createdAt,value
2018-11-01T00:01:40.323Z,33.10
2018-11-01T00:04:08.404Z,38.13
2018-11-01T00:06:36.802Z,31.45
2018-11-01T00:09:07.432Z,37.17
2018-11-01T00:11:35.757Z,34.18
2018-11-01T00:14:04.135Z,31.37
2018-11-01T00:16:32.290Z,35.30
2018-11-01T00:19:00.634Z,33.60
2018-11-01T00:21:28.788Z,30.45
2018-11-01T00:23:56.918Z,31.93
2018-11-01T00:26:24.966Z,34.25
2018-11-01T00:28:53.247Z,37.20
2018-11-01T00:31:21.581Z,35.15
2018-11-01T00:33:49.476Z,31.02
2018-11-01T00:36:17.668Z,28.87
2018-11-01T00:38:45.936Z,30.82
2018-11-01T00:41:14.212Z,34.98
2018-11-01T00:43:42.492Z,38.33
2018-11-01T00:46:10.477Z,31.80
2018-11-01T00:48:38.725Z,29.48
2018-11-01T00:51:06.567Z,40.05
2018-11-01T00:53:34.763Z,40.65
2018-11-01T00:56:03.081Z,31.27
2018-11-01T00:58:31.350Z,30.52
2018-11-01T01:00:59.604Z,29.20
2018-11-01T01:03:27.850Z,36.63
2018-11-01T01:05:56.250Z,32.40
2018-11-01T01:08:25.388Z,32.73
2018-11-01T01:10:53.545Z,28.15
2018-11-01T01:13:21.797Z,37.75
2018-11-01T01:15:49.769Z,48.10
2018-11-01T01:18:17.976Z,32.03
2018-11-01T01:20:46.261Z,31.73
2018-11-01T01:23:14.492Z,30.55
2018-11-01T01:25:42.815Z,28.70
2018-11-01T01:28:10.799Z,30.92
2018-11-01T01:30:40.141Z,31.42
2018-11-01T01:33:08.117Z,27.02
2018-11-01T01:35:36.373Z,33.45
2018-11-01T01:38:04.552Z,25.90
2018-11-01T01:40:32.550Z,34.00
2018-11-01T01:43:00.692Z,26.55
2018-11-01T01:45:29.058Z,37.05
2018-11-01T01:47:57.249Z,36.08
2018-11-01T01:50:25.590Z,34.70
2018-11-01T01:52:53.815Z,34.98
2018-11-01T01:55:22.061Z,29.30
2018-11-01T01:57:50.355Z,34.08
2018-11-01T02:00:19.619Z,43.85
2018-11-01T02:02:52.029Z,39.27
2018-11-01T02:05:20.072Z,34.90
2018-11-01T02:07:49.289Z,31.00
2018-11-01T02:10:18.896Z,36.42
2018-11-01T02:12:46.973Z,34.88
2018-11-01T02:15:16.739Z,33.15
2018-11-01T02:17:44.959Z,33.48
2018-11-01T02:20:14.605Z,33.60
2018-11-01T02:22:43.514Z,31.12
2018-11-01T02:25:11.756Z,30.75
2018-11-01T02:27:45.452Z,33.35
2018-11-01T02:30:15.217Z,30.52
2018-11-01T02:32:44.062Z,32.65
2018-11-01T02:35:14.103Z,35.33
2018-11-01T02:37:43.032Z,35.48
2018-11-01T02:40:11.695Z,35.80
2018-11-01T02:42:40.050Z,34.70
2018-11-01T02:45:09.011Z,46.63
2018-11-01T02:47:37.358Z,32.23
2018-11-01T02:50:06.063Z,31.90
2018-11-01T02:52:34.229Z,30.90
2018-11-01T02:55:02.774Z,32.85
2018-11-01T02:57:31.757Z,43.92
2018-11-01T02:59:59.766Z,34.18
2018-11-01T03:02:28.101Z,39.25
2018-11-01T03:04:56.018Z,35.00
2018-11-01T03:07:24.395Z,33.53
2018-11-01T03:09:52.468Z,34.67
2018-11-01T03:12:20.817Z,31.52
2018-11-01T03:14:49.031Z,31.95
2018-11-01T03:17:17.021Z,38.80
2018-11-01T03:19:45.170Z,34.18
2018-11-01T03:22:13.431Z,34.83
2018-11-01T03:24:41.447Z,39.70
2018-11-01T03:27:09.612Z,37.20
2018-11-01T03:29:37.948Z,36.38
2018-11-01T03:32:05.892Z,40.52
2018-11-01T03:34:34.022Z,27.60
2018-11-01T03:37:02.417Z,27.30
2018-11-01T03:39:30.577Z,32.38
2018-11-01T03:41:58.876Z,27.85
2018-11-01T03:44:27.093Z,29.25
2018-11-01T03:46:55.526Z,36.60
2018-11-01T03:49:24.364Z,26.27
2018-11-01T03:51:52.879Z,27.07
2018-11-01T03:54:21.097Z,27.35
2018-11-01T03:56:49.290Z,30.62
2018-11-01T03:59:17.625Z,25.37
2018-11-01T04:01:45.872Z,26.62
2018-11-01T04:04:14.228Z,26.60
2018-11-01T04:06:42.412Z,25.15
2018-11-01T04:09:12.189Z,28.95
2018-11-01T04:11:40.992Z,36.08
2018-11-01T04:14:09.568Z,22.07
2018-11-01T04:16:38.403Z,26.70
2018-11-01T04:19:06.876Z,29.72
2018-11-01T04:21:35.235Z,29.52
2018-11-01T04:24:03.640Z,22.70
2018-11-01T04:26:31.896Z,30.77
2018-11-01T04:29:00.234Z,32.25
2018-11-01T04:31:29.288Z,28.25
2018-11-01T04:33:57.561Z,30.55
2018-11-01T04:36:25.940Z,29.90
2018-11-01T04:38:54.217Z,30.05
2018-11-01T04:41:22.475Z,33.63
2018-11-01T04:43:50.703Z,23.20
2018-11-01T04:46:18.975Z,23.52
2018-11-01T04:48:47.193Z,26.70
2018-11-01T04:51:15.500Z,30.50
2018-11-01T04:53:45.135Z,30.15
2018-11-01T04:56:13.331Z,24.18
2018-11-01T04:58:41.598Z,29.48
2018-11-01T05:01:09.795Z,23.92
2018-11-01T05:03:38.105Z,30.40
2018-11-01T05:06:08.406Z,28.47
2018-11-01T05:08:36.714Z,29.37
2018-11-01T05:11:05.024Z,32.83
2018-11-01T05:13:33.288Z,27.62
2018-11-01T05:16:01.185Z,27.52
2018-11-01T05:18:29.436Z,33.85
2018-11-01T05:20:57.665Z,30.17
2018-11-01T05:23:25.967Z,47.85
2018-11-01T05:25:53.991Z,32.28
2018-11-01T05:28:21.785Z,34.33
2018-11-01T05:30:50.013Z,32.10
2018-11-01T05:33:18.223Z,29.75
2018-11-01T05:35:46.510Z,33.40
2018-11-01T05:38:19.311Z,35.60
2018-11-01T05:40:47.571Z,34.48
2018-11-01T05:43:21.243Z,29.45
2018-11-01T05:45:49.473Z,32.23
2018-11-01T05:48:18.582Z,35.90
2018-11-01T05:50:46.503Z,33.23
2018-11-01T05:53:14.669Z,34.98
2018-11-01T05:55:42.950Z,29.75
2018-11-01T05:58:11.224Z,29.82
2018-11-01T06:00:39.529Z,33.33
2018-11-01T06:03:07.822Z,38.70
2018-11-01T06:05:36.076Z,34.25
2018-11-01T06:08:07.195Z,31.20
2018-11-01T06:10:35.506Z,32.70
2018-11-01T06:13:04.365Z,34.33
2018-11-01T06:15:32.439Z,37.70
2018-11-01T06:18:00.716Z,41.42
2018-11-01T06:20:28.712Z,38.78
2018-11-01T06:22:56.856Z,33.28
2018-11-01T06:25:24.846Z,34.75
2018-11-01T06:27:52.972Z,34.73
2018-11-01T06:30:21.117Z,30.35
2018-11-01T06:32:49.140Z,38.05
2018-11-01T06:35:19.977Z,37.63
2018-11-01T06:37:48.159Z,36.65
2018-11-01T06:40:16.701Z,29.45
2018-11-01T06:42:45.794Z,43.00
2018-11-01T06:45:14.280Z,42.67
2018-11-01T06:47:42.268Z,36.70
2018-11-01T06:50:33.089Z,42.35
2018-11-01T06:53:01.179Z,33.67
2018-11-01T06:55:29.455Z,40.55
2018-11-01T06:57:57.789Z,40.83
2018-11-01T07:00:25.955Z,40.23
2018-11-01T07:02:54.229Z,35.28
2018-11-01T07:05:22.546Z,39.18
2018-11-01T07:07:50.534Z,41.98
2018-11-01T07:10:18.724Z,49.53
2018-11-01T07:12:46.953Z,40.08
2018-11-01T07:15:16.006Z,35.35
2018-11-01T07:17:44.510Z,33.35
2018-11-01T07:20:13.668Z,35.05
2018-11-01T07:22:42.217Z,34.23
2018-11-01T07:25:13.515Z,38.48
2018-11-01T07:27:41.668Z,46.30
2018-11-01T07:30:11.120Z,42.90
2018-11-01T07:32:39.034Z,40.12
2018-11-01T07:35:07.480Z,40.63
2018-11-01T07:37:36.090Z,42.75
2018-11-01T07:40:05.026Z,41.58
2018-11-01T07:42:33.266Z,38.02
2018-11-01T07:45:01.729Z,43.83
2018-11-01T07:47:29.775Z,42.17
2018-11-01T07:49:58.060Z,39.95
2018-11-01T07:52:26.064Z,44.67
2018-11-01T07:54:54.206Z,45.63
2018-11-01T07:57:22.501Z,38.50
2018-11-01T07:59:50.416Z,47.15
2018-11-01T08:02:18.299Z,43.70
2018-11-01T08:04:46.184Z,41.90
2018-11-01T08:07:14.351Z,44.23
2018-11-01T08:09:42.658Z,37.78
2018-11-01T08:12:10.946Z,47.93
2018-11-01T08:14:38.948Z,42.15
2018-11-01T08:17:07.404Z,37.98
2018-11-01T08:19:36.132Z,37.95
2018-11-01T08:22:05.012Z,42.53
2018-11-01T08:24:33.094Z,44.05
2018-11-01T08:27:01.425Z,40.85
2018-11-01T08:29:29.640Z,47.23
2018-11-01T08:31:57.991Z,35.68
2018-11-01T08:34:26.231Z,44.35
2018-11-01T08:36:54.172Z,49.20
2018-11-01T08:39:22.395Z,41.23
2018-11-01T08:41:51.430Z,40.87
2018-11-01T08:44:19.742Z,36.88
2018-11-01T08:46:47.673Z,50.23
2018-11-01T08:49:16.010Z,36.13
2018-11-01T08:51:44.263Z,38.00
2018-11-01T08:54:12.095Z,37.53
2018-11-01T08:56:40.306Z,38.13
2018-11-01T08:59:08.253Z,37.43
2018-11-01T09:01:36.442Z,38.10
2018-11-01T09:04:05.140Z,51.57
2018-11-01T09:06:33.431Z,42.97
2018-11-01T09:09:01.685Z,43.50
2018-11-01T09:11:29.921Z,43.00
2018-11-01T09:13:58.635Z,38.60
2018-11-01T09:16:26.870Z,39.07
2018-11-01T09:18:55.174Z,39.10
2018-11-01T09:21:23.144Z,42.27
2018-11-01T09:23:51.409Z,39.40
2018-11-01T09:26:19.566Z,40.27
2018-11-01T09:28:47.828Z,37.77
2018-11-01T09:31:16.146Z,42.10
2018-11-01T09:33:44.476Z,37.73
2018-11-01T09:36:13.311Z,48.57
2018-11-01T09:38:41.410Z,43.90
2018-11-01T09:41:09.690Z,41.70
2018-11-01T09:43:37.941Z,40.83
2018-11-01T09:46:06.365Z,40.23
2018-11-01T09:48:35.364Z,37.70
2018-11-01T09:51:03.564Z,44.00
2018-11-01T09:53:33.898Z,42.07
2018-11-01T09:56:01.920Z,40.37
2018-11-01T09:58:30.025Z,39.20
2018-11-01T10:00:58.373Z,37.20
2018-11-01T10:03:26.305Z,38.30
2018-11-01T10:05:54.574Z,38.03
2018-11-01T10:08:22.730Z,36.50
2018-11-01T10:10:50.739Z,39.40
2018-11-01T10:13:18.906Z,38.83
2018-11-01T10:15:47.060Z,37.73
2018-11-01T10:18:15.434Z,35.40
2018-11-01T10:20:43.290Z,36.37
2018-11-01T10:23:11.736Z,38.77
2018-11-01T10:25:39.899Z,39.53
2018-11-01T10:28:08.152Z,40.47
2018-11-01T10:30:36.428Z,36.03
2018-11-01T10:33:04.842Z,37.27
2018-11-01T10:35:33.294Z,35.73
2018-11-01T10:38:01.637Z,36.73
2018-11-01T10:40:29.970Z,38.33
2018-11-01T10:42:58.224Z,37.07
2018-11-01T10:45:26.473Z,44.30
2018-11-01T10:47:54.464Z,42.40
2018-11-01T10:50:22.668Z,38.80
2018-11-01T10:52:50.899Z,43.77
2018-11-01T10:55:19.208Z,38.20
2018-11-01T10:57:47.566Z,36.03
2018-11-01T11:00:21.057Z,39.13
2018-11-01T11:02:50.778Z,37.77
2018-11-01T11:05:20.074Z,35.10
2018-11-01T11:07:48.792Z,39.00
2018-11-01T11:10:17.296Z,37.50
2018-11-01T11:12:45.705Z,38.87
2018-11-01T11:15:14.027Z,39.17
2018-11-01T11:17:41.940Z,37.63
2018-11-01T11:20:10.810Z,49.50
2018-11-01T11:22:38.802Z,41.33
2018-11-01T11:25:09.108Z,37.77
2018-11-01T11:27:37.183Z,42.30
2018-11-01T11:30:10.121Z,39.47
2018-11-01T11:32:38.724Z,41.07
2018-11-01T11:35:07.292Z,36.17
2018-11-01T11:37:35.442Z,34.00
2018-11-01T11:40:04.254Z,36.23
2018-11-01T11:42:32.414Z,34.03
2018-11-01T11:45:00.771Z,37.07
2018-11-01T11:47:28.730Z,34.93
2018-11-01T11:49:56.856Z,36.23
2018-11-01T11:52:24.772Z,34.57
2018-11-01T11:54:52.940Z,34.27
2018-11-01T11:57:20.941Z,34.30
2018-11-01T11:59:49.096Z,41.67
2018-11-01T12:02:20.824Z,31.33
2018-11-01T12:04:48.941Z,38.83
2018-11-01T12:07:16.921Z,36.73
2018-11-01T12:09:45.053Z,32.00
2018-11-01T12:12:13.452Z,36.03
2018-11-01T12:14:41.634Z,40.40
2018-11-01T12:17:09.876Z,31.27
2018-11-01T12:19:38.237Z,37.07
2018-11-01T12:22:06.479Z,32.53
2018-11-01T12:24:34.769Z,29.43
2018-11-01T12:27:03.035Z,32.40
2018-11-01T12:29:31.531Z,31.93
2018-11-01T12:31:59.984Z,29.37
2018-11-01T12:34:28.231Z,35.20
2018-11-01T12:36:56.693Z,31.73
2018-11-01T12:39:24.777Z,36.50
2018-11-01T12:41:52.766Z,31.10
2018-11-01T12:44:21.188Z,33.40
2018-11-01T12:46:49.605Z,34.40
2018-11-01T12:49:17.580Z,34.33
2018-11-01T12:51:45.749Z,37.50
2018-11-01T12:54:14.110Z,31.93
2018-11-01T12:56:42.304Z,28.83
2018-11-01T12:59:10.545Z,35.43
2018-11-01T13:01:38.884Z,38.50
2018-11-01T13:04:08.070Z,31.90
2018-11-01T13:06:36.278Z,42.50
2018-11-01T13:09:08.197Z,31.33
2018-11-01T13:11:36.537Z,28.53
2018-11-01T13:14:04.872Z,37.27
2018-11-01T13:16:32.993Z,29.10
2018-11-01T13:19:01.318Z,36.97
2018-11-01T13:21:29.577Z,30.33
2018-11-01T13:23:57.848Z,29.80
2018-11-01T13:26:26.112Z,27.73
2018-11-01T13:28:54.196Z,26.10
2018-11-01T13:31:22.276Z,29.73
2018-11-01T13:33:50.546Z,30.40
2018-11-01T13:36:18.809Z,31.37
2018-11-01T13:38:47.097Z,29.37
2018-11-01T13:41:16.612Z,28.53
2018-11-01T13:43:45.284Z,36.20
2018-11-01T13:46:14.558Z,31.47
2018-11-01T13:48:42.703Z,28.47
2018-11-01T13:51:10.628Z,32.60
2018-11-01T13:53:40.045Z,31.73
2018-11-01T13:56:09.246Z,27.63
2018-11-01T13:58:37.405Z,33.43
2018-11-01T14:01:05.509Z,29.50
2018-11-01T14:03:33.601Z,33.30
2018-11-01T14:06:01.855Z,29.33
2018-11-01T14:08:30.087Z,41.67
2018-11-01T14:10:58.401Z,45.03
2018-11-01T14:13:26.768Z,29.63
2018-11-01T14:15:54.949Z,32.13
2018-11-01T14:18:23.174Z,28.03
2018-11-01T14:20:51.502Z,29.80
2018-11-01T14:23:19.408Z,29.20
2018-11-01T14:25:47.701Z,37.10
2018-11-01T14:28:15.943Z,38.73
2018-11-01T14:30:44.187Z,28.87
2018-11-01T14:33:12.441Z,33.50
2018-11-01T14:35:40.785Z,33.50
2018-11-01T14:38:09.147Z,27.17
2018-11-01T14:40:37.672Z,32.23
2018-11-01T14:43:06.013Z,36.60
2018-11-01T14:45:35.156Z,34.17
2018-11-01T14:48:03.330Z,33.17
2018-11-01T14:50:31.351Z,35.20
2018-11-01T14:52:59.875Z,34.30
2018-11-01T14:55:29.422Z,34.57
2018-11-01T14:57:57.004Z,31.77
2018-11-01T15:00:23.914Z,33.60
2018-11-01T15:02:52.242Z,28.13
2018-11-01T15:05:20.500Z,26.70
2018-11-01T15:07:48.432Z,32.20
2018-11-01T15:10:16.579Z,25.70
2018-11-01T15:12:44.941Z,33.60
2018-11-01T15:15:12.883Z,25.87
2018-11-01T15:17:41.489Z,38.00
2018-11-01T15:20:10.393Z,27.83
2018-11-01T15:22:38.787Z,26.87
2018-11-01T15:25:07.214Z,32.27
2018-11-01T15:27:35.680Z,31.30
2018-11-01T15:30:05.707Z,30.13
2018-11-01T15:32:33.691Z,28.33
2018-11-01T15:35:01.485Z,25.37
2018-11-01T15:37:29.418Z,26.10
2018-11-01T15:39:58.521Z,25.23
2018-11-01T15:42:26.668Z,27.07
2018-11-01T15:44:54.960Z,31.90
2018-11-01T15:47:24.014Z,22.70
2018-11-01T15:49:53.192Z,24.40
2018-11-01T15:52:21.345Z,22.17
2018-11-01T15:54:49.657Z,27.23
2018-11-01T15:57:17.961Z,22.90
2018-11-01T15:59:46.062Z,26.37
2018-11-01T16:02:14.858Z,24.30
2018-11-01T16:04:42.857Z,29.23
2018-11-01T16:07:11.120Z,34.37
2018-11-01T16:09:39.312Z,29.03
2018-11-01T16:12:08.469Z,33.03
2018-11-01T16:14:36.674Z,30.20
2018-11-01T16:17:05.072Z,32.33
2018-11-01T16:19:33.337Z,41.77
2018-11-01T16:22:01.226Z,36.70
2018-11-01T16:24:29.377Z,32.87
2018-11-01T16:26:57.737Z,30.87
2018-11-01T16:29:25.667Z,32.30
2018-11-01T16:31:53.812Z,32.67
2018-11-01T16:34:21.883Z,33.23
2018-11-01T16:36:49.992Z,33.40
2018-11-01T16:39:18.241Z,28.17
2018-11-01T16:41:46.541Z,26.10
2018-11-01T16:44:14.779Z,31.07
2018-11-01T16:46:43.041Z,26.00
2018-11-01T16:49:11.013Z,25.70
2018-11-01T16:51:39.234Z,28.07
2018-11-01T16:54:07.449Z,23.32
2018-11-01T16:56:35.750Z,25.40
2018-11-01T16:59:04.047Z,24.57
2018-11-01T17:01:32.472Z,25.68
2018-11-01T17:04:01.639Z,24.95
2018-11-01T17:06:30.153Z,25.00
2018-11-01T17:08:59.285Z,24.95
2018-11-01T17:11:27.480Z,25.02
2018-11-01T17:13:55.744Z,22.58
2018-11-01T17:16:24.092Z,24.65
2018-11-01T17:18:52.944Z,25.17
2018-11-01T17:21:21.042Z,25.85
2018-11-01T17:23:49.616Z,25.40
2018-11-01T17:26:17.913Z,27.40
2018-11-01T17:28:46.227Z,28.90
2018-11-01T17:31:14.457Z,27.60
2018-11-01T17:33:42.526Z,33.90
2018-11-01T17:36:10.733Z,26.75
2018-11-01T17:38:40.077Z,29.02
2018-11-01T17:41:09.283Z,28.55
2018-11-01T17:43:38.488Z,25.50
2018-11-01T17:46:06.778Z,28.47
2018-11-01T17:48:34.880Z,26.85
2018-11-01T17:51:03.195Z,29.98
2018-11-01T17:53:31.100Z,27.67
2018-11-01T17:55:59.270Z,27.15
2018-11-01T17:58:27.642Z,29.05
2018-11-01T18:00:55.879Z,28.60
2018-11-01T18:03:24.170Z,27.65
2018-11-01T18:05:52.371Z,29.63
2018-11-01T18:08:20.707Z,29.77
2018-11-01T18:10:52.327Z,29.48
2018-11-01T18:13:20.520Z,29.90
2018-11-01T18:15:48.784Z,30.02
2018-11-01T18:18:17.022Z,31.95
2018-11-01T18:20:45.325Z,31.93
2018-11-01T18:23:13.712Z,30.32
2018-11-01T18:25:47.265Z,31.52
2018-11-01T18:28:17.210Z,30.75
2018-11-01T18:30:45.405Z,39.90
2018-11-01T18:33:13.782Z,31.10
2018-11-01T18:35:41.926Z,32.05
2018-11-01T18:38:09.917Z,32.83
2018-11-01T18:40:38.984Z,34.25
2018-11-01T18:43:07.004Z,34.60
2018-11-01T18:45:35.426Z,34.73
2018-11-01T18:48:03.419Z,33.38
2018-11-01T18:50:31.636Z,38.45
2018-11-01T18:52:59.556Z,35.25
2018-11-01T18:55:27.471Z,36.00
2018-11-01T18:57:55.644Z,35.05
2018-11-01T19:00:23.976Z,35.92
2018-11-01T19:02:51.883Z,33.50
2018-11-01T19:05:21.349Z,34.65
2018-11-01T19:07:49.506Z,37.98
2018-11-01T19:10:17.821Z,35.68
2018-11-01T19:12:45.775Z,36.95
2018-11-01T19:15:17.338Z,34.67
2018-11-01T19:17:45.524Z,32.98
2018-11-01T19:20:13.779Z,35.30
2018-11-01T19:22:42.154Z,33.53
2018-11-01T19:25:10.802Z,31.20
2018-11-01T19:27:38.858Z,33.48
2018-11-01T19:30:08.516Z,31.82
2018-11-01T19:32:36.493Z,30.50
2018-11-01T19:35:04.744Z,31.57
2018-11-01T19:37:34.160Z,33.65
2018-11-01T19:40:02.664Z,33.10
2018-11-01T19:42:30.728Z,33.30
2018-11-01T19:44:59.366Z,33.20
2018-11-01T19:47:27.711Z,32.93
2018-11-01T19:49:55.956Z,31.05
2018-11-01T19:52:24.213Z,28.00
2018-11-01T19:54:52.241Z,30.62
2018-11-01T19:57:20.480Z,32.10
2018-11-01T19:59:48.717Z,29.50
2018-11-01T20:02:16.924Z,30.32
2018-11-01T20:04:45.227Z,31.97
2018-11-01T20:07:13.491Z,29.57
2018-11-01T20:09:41.742Z,38.53
2018-11-01T20:12:10.069Z,30.27
2018-11-01T20:14:38.381Z,30.85
2018-11-01T20:17:06.804Z,28.65
2018-11-01T20:19:37.047Z,29.72
2018-11-01T20:22:06.052Z,30.32
2018-11-01T20:24:34.616Z,29.52
2018-11-01T20:27:02.962Z,28.77
2018-11-01T20:29:31.216Z,25.77
2018-11-01T20:31:59.652Z,26.77
2018-11-01T20:34:27.833Z,25.45
2018-11-01T20:36:56.047Z,27.25
2018-11-01T20:39:24.351Z,27.27
2018-11-01T20:41:52.612Z,30.35
2018-11-01T20:44:20.924Z,30.20
2018-11-01T20:46:49.141Z,31.55
2018-11-01T20:49:17.234Z,33.20
2018-11-01T20:51:45.537Z,35.40
2018-11-01T20:54:13.577Z,38.58
2018-11-01T20:56:41.907Z,40.83
2018-11-01T20:59:10.151Z,41.92
2018-11-01T21:01:38.460Z,44.08
2018-11-01T21:04:07.505Z,43.35
2018-11-01T21:06:35.859Z,44.90
2018-11-01T21:09:06.038Z,45.90
2018-11-01T21:11:34.459Z,50.00
2018-11-01T21:14:05.838Z,45.17
2018-11-01T21:16:34.209Z,46.48
2018-11-01T21:19:02.201Z,47.55
2018-11-01T21:21:30.392Z,46.70
2018-11-01T21:23:58.361Z,49.73
2018-11-01T21:26:26.205Z,50.48
2018-11-01T21:28:54.398Z,52.05
2018-11-01T21:31:22.736Z,49.58
2018-11-01T21:33:50.911Z,50.12
2018-11-01T21:36:21.247Z,53.45
2018-11-01T21:38:49.530Z,53.02
2018-11-01T21:41:17.875Z,53.68
2018-11-01T21:43:46.149Z,52.38
2018-11-01T21:46:14.313Z,49.83
2018-11-01T21:48:42.693Z,55.92
2018-11-01T21:51:11.004Z,54.95
2018-11-01T21:53:38.983Z,52.95
2018-11-01T21:56:07.089Z,52.62
2018-11-01T21:58:35.368Z,53.50
2018-11-01T22:01:03.713Z,52.78
2018-11-01T22:03:31.921Z,54.53
2018-11-01T22:06:00.207Z,53.52
2018-11-01T22:08:28.416Z,51.13
2018-11-01T22:10:56.707Z,53.08
2018-11-01T22:13:24.657Z,57.95
2018-11-01T22:15:52.551Z,53.85
2018-11-01T22:18:20.769Z,52.88
2018-11-01T22:20:48.974Z,54.67
2018-11-01T22:23:17.320Z,54.83
2018-11-01T22:25:45.608Z,54.27
2018-11-01T22:28:14.055Z,52.93
2018-11-01T22:30:41.800Z,56.15
2018-11-01T22:33:09.944Z,56.02
2018-11-01T22:35:38.258Z,54.93
2018-11-01T22:38:06.216Z,52.88
2018-11-01T22:40:34.157Z,55.43
2018-11-01T22:43:02.238Z,55.78
2018-11-01T22:45:30.531Z,56.28
2018-11-01T22:47:58.814Z,55.52
2018-11-01T22:50:27.045Z,56.25
2018-11-01T22:52:55.359Z,55.30
2018-11-01T22:55:23.648Z,54.13
2018-11-01T22:57:51.944Z,56.18
2018-11-01T23:00:20.669Z,57.03
2018-11-01T23:02:52.668Z,56.75
2018-11-01T23:05:20.799Z,57.50
2018-11-01T23:07:49.062Z,60.92
2018-11-01T23:10:17.359Z,56.35
2018-11-01T23:12:45.628Z,55.75
2018-11-01T23:15:14.101Z,55.95
2018-11-01T23:17:42.653Z,55.67
2018-11-01T23:20:12.590Z,53.42
2018-11-01T23:22:40.815Z,55.12
2018-11-01T23:25:09.037Z,50.90
2018-11-01T23:27:37.337Z,54.80
2018-11-01T23:30:05.541Z,54.10
2018-11-01T23:32:33.967Z,55.50
2018-11-01T23:35:01.861Z,54.45
2018-11-01T23:37:35.569Z,57.60
2018-11-01T23:40:10.506Z,54.67
2018-11-01T23:42:44.413Z,55.30
2018-11-01T23:45:17.849Z,53.98
2018-11-01T23:47:51.377Z,54.50
2018-11-01T23:50:25.556Z,56.85
2018-11-01T23:52:57.297Z,55.90
2018-11-01T23:55:25.375Z,56.95
2018-11-01T23:57:54.417Z,55.33
